Startpagina
METAR-TAF:

METAR-TAF

Vliegvelden :

Djibouti, Djibouti

Luchthaven Ambouli Internationaal

breedte: 11-33N, lengte: 043-10E, hoogte: 49 m

Actueel weer

Dit bericht is 20 uur en het 43 minuten geleden gemaakt, om 10:00 UTC
Wind 9 kt uit het noordoosten
Temperatuur 39°C
Vochtigheid 45%
Druk 1004 hPa
Zicht: 8000 m
Gebroken wolken op 15000 ft
Heiigheid

METAR: HDAM 271000Z 05009KT 8000 HZ BKN150 39/25 Q1004

Tijdstip: 09:43 (06:43 UTC)

Verwachting

Dit bericht is 19 uur en het 43 minuten geleden gemaakt, om 11:00 UTC
Verwachting geldig van 28 om 00 UTC tot 28 om 24 UTC
Wind kt uit het noorden
Zicht 10 km of meer
geen wolken onder 1500 m en geen cumulonimbus
Wijzigt naar
van 28 om 06 UTC tot 28 om 12 UTC
Wind 10 kt uit het westen
Zicht: 8000 m
Heiigheid
Wijzigt naar
van 28 om 12 UTC tot 28 om 18 UTC
Wind 10 kt uit het oostnoordoosten
Weinig wolken op 3000 ft, Cumulonimbus.

TAF: HDAM 271100Z 2800/2824 00000KT CAVOK BECMG 2806/2812 27010KT 8000 HZ NSC BECMG 2812/2818 06010KT 9/9 FEW030CB

Waarnemingen en weersverwachtingen van meer dan 4000 vliegvelden (METAR en TAF).

De beschikbare stations zijn de gele en rode punten op de kaart.

Ga met uw muis naar het station om de naam te zien.

Klik dan om waarnemingen en weersverwachtingen te zien.

kaart wijzigen: klik op de groene knoppen met een zwart kruis om in te zoomen, op de groene knop met een streepje om uit te zoomen of op de groene pijlen voor aangrenzende kaarten.


METAR-TAF: